createdAt,value
2022-09-04T00:00:10.387Z,17.40
2022-09-04T00:03:03.628Z,17.40
2022-09-04T00:05:37.659Z,17.40
2022-09-04T00:08:29.741Z,17.50
2022-09-04T00:11:03.703Z,17.50
2022-09-04T00:13:37.557Z,17.50
2022-09-04T00:16:12.040Z,17.50
2022-09-04T00:18:45.714Z,17.50
2022-09-04T00:21:20.389Z,17.50
2022-09-04T00:23:54.989Z,17.40
2022-09-04T00:26:37.034Z,17.40
2022-09-04T00:29:11.151Z,17.40
2022-09-04T00:31:45.691Z,17.30
2022-09-04T00:34:21.266Z,17.30
2022-09-04T00:36:55.173Z,17.30
2022-09-04T00:39:29.209Z,17.30
2022-09-04T00:42:06.366Z,17.40
2022-09-04T00:44:48.473Z,17.20
2022-09-04T00:47:51.689Z,17.20
2022-09-04T00:50:47.997Z,17.20
2022-09-04T00:53:48.883Z,17.30
2022-09-04T00:56:31.043Z,17.10
2022-09-04T00:59:10.173Z,17.10
2022-09-04T01:01:41.326Z,17.10
2022-09-04T01:07:30.600Z,17.10
2022-09-04T01:10:19.743Z,17.10
2022-09-04T01:12:55.075Z,17.00
2022-09-04T01:15:29.479Z,16.90
2022-09-04T01:18:06.702Z,16.90
2022-09-04T01:20:51.422Z,16.90
2022-09-04T01:23:56.394Z,16.90
2022-09-04T01:26:31.553Z,16.80
2022-09-04T01:29:10.200Z,16.70
2022-09-04T01:31:44.701Z,16.70
2022-09-04T01:34:33.124Z,16.70
2022-09-04T01:37:07.660Z,16.70
2022-09-04T01:39:41.047Z,16.70
2022-09-04T01:42:17.217Z,16.70
2022-09-04T01:44:49.087Z,16.60
2022-09-04T01:47:22.742Z,16.50
2022-09-04T01:49:57.457Z,16.40
2022-09-04T01:52:40.429Z,16.50
2022-09-04T01:55:16.182Z,16.50
2022-09-04T01:58:09.017Z,16.50
2022-09-04T02:00:43.582Z,16.50
2022-09-04T02:03:21.338Z,16.30
2022-09-04T02:05:59.487Z,16.30
2022-09-04T02:08:41.300Z,16.30
2022-09-04T02:11:15.795Z,16.30
2022-09-04T02:13:55.830Z,16.30
2022-09-04T02:16:31.281Z,16.30
2022-09-04T02:19:04.941Z,16.30
2022-09-04T02:21:38.998Z,16.30
2022-09-04T02:24:13.910Z,16.20
2022-09-04T02:26:48.202Z,16.20
2022-09-04T02:29:23.790Z,16.30
2022-09-04T02:31:58.410Z,16.20
2022-09-04T02:34:33.137Z,16.20
2022-09-04T02:37:07.258Z,16.10
2022-09-04T02:39:44.186Z,16.10
2022-09-04T02:42:19.823Z,16.10
2022-09-04T02:44:53.618Z,16.00
2022-09-04T02:47:29.229Z,15.90
2022-09-04T02:50:05.578Z,16.00
2022-09-04T02:53:02.143Z,16.00
2022-09-04T02:55:39.642Z,16.10
2022-09-04T02:58:16.384Z,16.00
2022-09-04T03:00:51.408Z,15.90
2022-09-04T03:03:25.110Z,15.90
2022-09-04T03:06:01.793Z,16.00
2022-09-04T03:08:36.805Z,15.90
2022-09-04T03:11:11.666Z,15.90
2022-09-04T03:13:46.537Z,15.90
2022-09-04T03:16:21.015Z,15.90
2022-09-04T03:19:12.045Z,15.90
2022-09-04T03:21:48.205Z,15.80
2022-09-04T03:24:24.134Z,15.90
2022-09-04T03:26:57.710Z,15.90
2022-09-04T03:29:34.277Z,15.80
2022-09-04T03:32:16.332Z,15.80
2022-09-04T03:34:52.343Z,15.70
2022-09-04T03:37:52.494Z,15.70
2022-09-04T03:40:30.152Z,15.60
2022-09-04T03:43:24.048Z,15.60
2022-09-04T03:45:58.758Z,15.70
2022-09-04T03:48:43.701Z,15.50
2022-09-04T03:51:20.876Z,15.50
2022-09-04T03:53:56.457Z,15.70
2022-09-04T03:56:53.392Z,15.80
2022-09-04T03:59:32.664Z,15.80
2022-09-04T04:02:06.853Z,15.70
2022-09-04T04:05:11.622Z,15.70
2022-09-04T04:07:47.382Z,15.80
2022-09-04T04:10:27.565Z,15.90
2022-09-04T04:13:09.573Z,15.90
2022-09-04T04:15:50.672Z,16.00
2022-09-04T04:18:48.757Z,16.00
2022-09-04T04:21:27.882Z,15.90
2022-09-04T04:27:44.638Z,15.70
2022-09-04T04:30:18.065Z,15.60
2022-09-04T04:35:55.771Z,15.60
2022-09-04T04:38:40.310Z,15.60
2022-09-04T04:41:35.140Z,15.60
2022-09-04T04:44:13.750Z,15.70
2022-09-04T04:46:52.481Z,15.50
2022-09-04T04:49:35.158Z,15.50
2022-09-04T04:55:17.879Z,15.50
2022-09-04T04:57:56.030Z,15.60
2022-09-04T05:00:31.107Z,15.70
2022-09-04T05:03:06.387Z,15.60
2022-09-04T05:05:58.894Z,15.50
2022-09-04T05:08:35.903Z,15.60
2022-09-04T05:11:11.013Z,15.60
2022-09-04T05:13:48.567Z,15.70
2022-09-04T05:16:24.617Z,15.70
2022-09-04T05:18:58.936Z,15.50
2022-09-04T05:21:34.990Z,15.40
2022-09-04T05:24:08.880Z,15.50
2022-09-04T05:26:43.196Z,15.40
2022-09-04T05:29:17.297Z,15.60
2022-09-04T05:31:52.526Z,15.70
2022-09-04T05:34:30.181Z,15.80
2022-09-04T05:37:07.105Z,15.80
2022-09-04T05:39:43.220Z,15.90
2022-09-04T05:42:25.366Z,15.80
2022-09-04T05:47:44.862Z,15.70
2022-09-04T05:50:27.340Z,15.80
2022-09-04T05:53:16.072Z,15.80
2022-09-04T05:55:59.802Z,16.00
2022-09-04T05:58:38.619Z,16.10
2022-09-04T06:01:15.681Z,16.10
2022-09-04T06:03:58.489Z,16.20
2022-09-04T06:06:32.766Z,16.40
2022-09-04T06:09:16.355Z,16.40
2022-09-04T06:11:59.242Z,16.50
2022-09-04T06:15:03.601Z,16.40
2022-09-04T06:17:46.190Z,16.60
2022-09-04T06:20:24.539Z,16.80
2022-09-04T06:23:10.256Z,16.90
2022-09-04T06:29:06.321Z,17.00
2022-09-04T06:32:07.568Z,17.00
2022-09-04T06:35:14.560Z,17.00
2022-09-04T06:37:50.580Z,17.00
2022-09-04T06:40:33.523Z,17.30
2022-09-04T06:43:12.009Z,17.40
2022-09-04T06:45:56.787Z,17.50
2022-09-04T06:48:31.738Z,17.70
2022-09-04T06:51:09.296Z,17.70
2022-09-04T06:53:45.809Z,17.90
2022-09-04T06:56:28.983Z,18.00
2022-09-04T07:02:24.026Z,18.20
2022-09-04T07:05:04.318Z,18.40
2022-09-04T07:07:39.402Z,18.50
2022-09-04T07:10:13.057Z,18.70
2022-09-04T07:13:01.865Z,18.60
2022-09-04T07:16:02.175Z,18.60
2022-09-04T07:18:42.093Z,18.80
2022-09-04T07:21:17.789Z,19.00
2022-09-04T07:23:52.531Z,19.10
2022-09-04T07:26:28.655Z,19.10
2022-09-04T07:29:35.969Z,19.10
2022-09-04T07:34:50.648Z,19.30
2022-09-04T07:37:27.466Z,19.20
2022-09-04T07:40:08.159Z,19.20
2022-09-04T07:42:42.452Z,19.50
2022-09-04T07:45:20.872Z,19.70
2022-09-04T07:47:58.061Z,19.90
2022-09-04T07:50:33.159Z,20.10
2022-09-04T07:53:17.053Z,20.10
2022-09-04T07:55:49.807Z,20.30
2022-09-04T07:58:32.346Z,20.40
2022-09-04T08:01:13.258Z,20.40
2022-09-04T08:06:33.999Z,20.30
2022-09-04T08:09:15.728Z,20.70
2022-09-04T08:15:09.892Z,20.70
2022-09-04T08:18:07.180Z,20.80
2022-09-04T08:20:44.264Z,20.90
2022-09-04T08:23:32.669Z,20.80
2022-09-04T08:26:10.204Z,20.90
2022-09-04T08:28:49.936Z,20.80
2022-09-04T08:31:24.626Z,20.70
2022-09-04T08:34:04.047Z,21.20
2022-09-04T08:36:39.275Z,21.30
2022-09-04T08:39:13.174Z,21.40
2022-09-04T08:41:59.340Z,21.50
2022-09-04T08:45:12.095Z,21.60
2022-09-04T08:48:12.604Z,21.80
2022-09-04T08:51:20.050Z,21.70
2022-09-04T08:54:25.538Z,21.60
2022-09-04T08:57:08.590Z,21.90
2022-09-04T09:00:08.806Z,22.00
2022-09-04T09:03:05.278Z,22.20
2022-09-04T09:06:14.871Z,22.10
2022-09-04T09:09:16.197Z,22.30
2022-09-04T09:12:25.725Z,22.60
2022-09-04T09:15:19.499Z,22.80
2022-09-04T09:18:01.412Z,22.80
2022-09-04T09:20:34.624Z,22.70
2022-09-04T09:23:23.616Z,22.80
2022-09-04T09:26:19.367Z,23.10
2022-09-04T09:29:45.180Z,23.30
2022-09-04T09:36:03.083Z,23.60
2022-09-04T09:39:13.140Z,23.60
2022-09-04T09:42:14.270Z,23.40
2022-09-04T09:45:12.107Z,23.60
2022-09-04T09:48:24.641Z,23.90
2022-09-04T09:51:25.886Z,24.10
2022-09-04T09:54:52.131Z,24.00
2022-09-04T09:57:59.345Z,23.90
2022-09-04T10:00:33.437Z,23.90
2022-09-04T10:03:42.930Z,23.90
2022-09-04T10:06:35.442Z,24.10
2022-09-04T10:09:56.628Z,24.60
2022-09-04T10:12:50.346Z,24.50
2022-09-04T10:15:45.632Z,24.50
2022-09-04T10:18:43.475Z,24.80
2022-09-04T10:24:58.535Z,25.20
2022-09-04T10:30:46.741Z,24.60
2022-09-04T10:33:31.745Z,24.50
2022-09-04T10:36:16.654Z,24.60
2022-09-04T10:39:11.270Z,24.80
2022-09-04T10:42:15.125Z,24.80
2022-09-04T10:45:02.219Z,25.20
2022-09-04T10:47:46.623Z,25.30
2022-09-04T10:50:31.355Z,25.30
2022-09-04T10:53:14.319Z,24.90
2022-09-04T10:55:55.454Z,25.70
2022-09-04T10:58:40.054Z,26.10
2022-09-04T11:04:50.004Z,25.90
2022-09-04T11:07:34.173Z,26.20
2022-09-04T11:10:37.111Z,26.30
2022-09-04T11:16:43.922Z,26.80
2022-09-04T11:19:35.453Z,26.70
2022-09-04T11:22:51.335Z,26.90
2022-09-04T11:26:03.943Z,26.50
2022-09-04T11:28:50.618Z,26.70
2022-09-04T11:31:33.890Z,27.10
2022-09-04T11:34:42.035Z,27.20
2022-09-04T11:38:01.228Z,27.10
2022-09-04T11:40:57.794Z,27.20
2022-09-04T11:43:47.836Z,26.40
2022-09-04T11:46:46.553Z,26.30
2022-09-04T11:49:37.947Z,26.70
2022-09-04T11:52:18.648Z,27.50
2022-09-04T11:55:35.598Z,27.90
2022-09-04T11:59:01.700Z,28.30
2022-09-04T12:01:47.540Z,27.90
2022-09-04T12:04:37.685Z,28.10
2022-09-04T12:07:16.911Z,28.80
2022-09-04T12:09:58.366Z,29.20
2022-09-04T12:13:25.504Z,28.90
2022-09-04T12:19:16.371Z,28.90
2022-09-04T12:22:24.087Z,29.20
2022-09-04T12:28:03.766Z,29.70
2022-09-04T12:30:38.780Z,29.30
2022-09-04T12:36:59.657Z,29.10
2022-09-04T12:39:47.199Z,29.60
2022-09-04T12:42:20.997Z,28.80
2022-09-04T12:44:58.177Z,29.00
2022-09-04T12:47:35.524Z,29.10
2022-09-04T12:50:21.229Z,29.20
2022-09-04T12:53:09.474Z,29.90
2022-09-04T12:55:46.005Z,30.30
2022-09-04T12:58:24.354Z,30.40
2022-09-04T13:00:59.293Z,30.60
2022-09-04T13:03:33.988Z,30.60
2022-09-04T13:08:55.373Z,29.20
2022-09-04T13:11:33.661Z,30.20
2022-09-04T13:14:12.715Z,30.50
2022-09-04T13:16:46.636Z,31.10
2022-09-04T13:19:20.537Z,30.90
2022-09-04T13:22:21.930Z,30.90
2022-09-04T13:24:58.044Z,30.20
2022-09-04T13:27:48.378Z,30.20
2022-09-04T13:30:25.807Z,30.90
2022-09-04T13:33:14.014Z,31.10
2022-09-04T13:35:59.973Z,31.20
2022-09-04T13:39:29.073Z,31.50
2022-09-04T13:42:22.201Z,31.40
2022-09-04T13:45:09.906Z,31.10
2022-09-04T13:47:49.909Z,31.70
2022-09-04T13:50:26.088Z,31.50
2022-09-04T13:53:02.081Z,31.80
2022-09-04T13:55:36.544Z,31.70
2022-09-04T13:58:11.733Z,31.90
2022-09-04T14:03:34.718Z,31.40
2022-09-04T14:06:08.879Z,31.80
2022-09-04T14:08:40.143Z,32.00
2022-09-04T14:11:54.118Z,31.90
2022-09-04T14:14:55.068Z,32.00
2022-09-04T14:17:28.960Z,31.70
2022-09-04T14:20:03.383Z,31.10
2022-09-04T14:22:41.437Z,31.70
2022-09-04T14:25:17.510Z,32.20
2022-09-04T14:27:53.624Z,31.90
2022-09-04T14:30:25.960Z,31.70
2022-09-04T14:33:19.265Z,32.20
2022-09-04T14:38:49.810Z,32.40
2022-09-04T14:41:32.824Z,32.10
2022-09-04T14:44:08.682Z,32.00
2022-09-04T14:46:46.512Z,32.20
2022-09-04T14:49:21.584Z,32.10
2022-09-04T14:51:55.880Z,32.40
2022-09-04T14:54:33.355Z,32.20
2022-09-04T14:57:07.024Z,31.60
2022-09-04T14:59:41.697Z,31.80
2022-09-04T15:02:24.368Z,31.40
2022-09-04T15:05:20.883Z,31.50
2022-09-04T15:07:55.152Z,31.20
2022-09-04T15:10:30.169Z,30.40
2022-09-04T15:13:22.630Z,31.00
2022-09-04T15:15:56.738Z,31.80
2022-09-04T15:18:30.551Z,31.10
2022-09-04T15:23:44.828Z,31.50
2022-09-04T15:29:02.669Z,32.40
2022-09-04T15:31:38.526Z,32.20
2022-09-04T15:34:12.408Z,31.90
2022-09-04T15:36:44.558Z,32.10
2022-09-04T15:39:18.627Z,31.90
2022-09-04T15:41:50.999Z,31.90
2022-09-04T15:44:29.181Z,30.80
2022-09-04T15:47:03.048Z,30.20
2022-09-04T15:49:42.517Z,29.70
2022-09-04T15:52:25.659Z,29.00
2022-09-04T15:55:07.441Z,28.80
2022-09-04T15:57:50.605Z,27.90
2022-09-04T16:00:26.558Z,27.60
2022-09-04T16:03:00.518Z,27.50
2022-09-04T16:05:37.577Z,27.20
2022-09-04T16:08:16.607Z,27.20
2022-09-04T16:10:53.504Z,26.90
2022-09-04T16:16:28.552Z,27.00
2022-09-04T16:19:07.317Z,26.90
2022-09-04T16:21:45.601Z,26.60
2022-09-04T16:24:19.226Z,26.20
2022-09-04T16:26:54.501Z,25.90
2022-09-04T16:29:33.314Z,25.70
2022-09-04T16:32:06.725Z,25.70
2022-09-04T16:34:41.301Z,26.00
2022-09-04T16:40:03.225Z,25.70
2022-09-04T16:42:40.113Z,25.70
2022-09-04T16:45:14.554Z,25.50
2022-09-04T16:47:49.019Z,25.50
2022-09-04T16:50:25.298Z,25.50
2022-09-04T16:53:13.409Z,25.50
2022-09-04T16:55:44.595Z,25.30
2022-09-04T16:58:33.941Z,25.40
2022-09-04T17:01:13.679Z,25.50
2022-09-04T17:03:43.196Z,25.20
2022-09-04T17:06:22.840Z,25.20
2022-09-04T17:08:57.833Z,25.30
2022-09-04T17:11:34.025Z,25.30
2022-09-04T17:14:09.206Z,25.20
2022-09-04T17:16:44.055Z,25.10
2022-09-04T17:19:17.267Z,25.00
2022-09-04T17:29:03.858Z,24.90
2022-09-04T17:29:10.938Z,25.00
2022-09-04T17:29:12.276Z,24.90
2022-09-04T17:30:05.556Z,24.90
2022-09-04T17:36:56.777Z,24.80
2022-09-04T17:40:37.987Z,24.70
2022-09-04T17:40:55.438Z,24.70
2022-09-04T17:43:23.611Z,24.50
2022-09-04T17:48:33.577Z,24.30
2022-09-04T17:51:07.527Z,24.20
2022-09-04T17:56:21.559Z,23.90
2022-09-04T17:58:55.962Z,23.80
2022-09-04T18:01:30.799Z,23.70
2022-09-04T18:04:22.452Z,23.50
2022-09-04T18:06:58.582Z,23.50
2022-09-04T18:09:34.614Z,23.50
2022-09-04T18:12:11.721Z,23.40
2022-09-04T18:15:12.873Z,23.40
2022-09-04T18:17:28.882Z,23.40
2022-09-04T18:20:08.353Z,23.50
2022-09-04T18:23:20.552Z,23.40
2022-09-04T18:25:54.819Z,23.30
2022-09-04T18:28:28.908Z,23.30
2022-09-04T18:37:22.080Z,23.20
2022-09-04T18:37:26.213Z,23.30
2022-09-04T18:39:28.179Z,23.10
2022-09-04T18:50:23.163Z,22.90
2022-09-04T18:50:24.772Z,23.00
2022-09-04T18:50:28.628Z,22.80
2022-09-04T18:51:13.981Z,22.70
2022-09-04T18:53:26.127Z,22.60
2022-09-04T18:55:59.911Z,22.50
2022-09-04T18:58:51.213Z,22.50
2022-09-04T19:01:27.387Z,22.50
2022-09-04T19:04:00.757Z,22.50
2022-09-04T19:06:37.129Z,22.50
2022-09-04T19:09:14.733Z,22.50
2022-09-04T19:11:49.182Z,22.50
2022-09-04T19:14:24.222Z,22.50
2022-09-04T19:16:58.604Z,22.60
2022-09-04T19:19:33.620Z,22.50
2022-09-04T19:24:52.796Z,22.60
2022-09-04T19:27:31.489Z,22.80
2022-09-04T19:32:48.674Z,22.70
2022-09-04T19:35:22.524Z,22.70
2022-09-04T19:41:42.972Z,22.40
2022-09-04T19:46:06.215Z,22.50
2022-09-04T19:46:17.788Z,22.20
2022-09-04T19:48:32.769Z,22.20
2022-09-04T19:53:35.189Z,22.30
2022-09-04T19:53:49.403Z,22.50
2022-09-04T19:56:27.171Z,22.40
2022-09-04T19:59:07.957Z,22.40
2022-09-04T20:01:48.549Z,22.30
2022-09-04T20:04:30.754Z,22.00
2022-09-04T20:07:05.230Z,21.80
2022-09-04T20:09:39.750Z,21.90
2022-09-04T20:12:18.290Z,21.90
2022-09-04T20:14:54.271Z,22.10
2022-09-04T20:17:33.704Z,22.30
2022-09-04T20:20:07.353Z,22.30
2022-09-04T20:22:42.903Z,22.10
2022-09-04T20:25:26.124Z,21.90
2022-09-04T20:28:00.498Z,22.00
2022-09-04T20:30:33.502Z,22.00
2022-09-04T20:33:07.141Z,21.90
2022-09-04T20:35:41.563Z,21.90
2022-09-04T20:38:23.009Z,21.90
2022-09-04T20:40:58.471Z,21.80
2022-09-04T20:43:32.684Z,21.80
2022-09-04T20:52:40.516Z,21.60
2022-09-04T20:52:54.192Z,21.60
2022-09-04T20:53:00.569Z,21.50
2022-09-04T20:54:17.527Z,21.30
2022-09-04T21:00:04.050Z,21.20
2022-09-04T21:03:10.002Z,21.20
2022-09-04T21:03:20.720Z,21.10
2022-09-04T21:04:48.776Z,21.10
2022-09-04T21:07:25.411Z,21.20
2022-09-04T21:10:10.127Z,21.20
2022-09-04T21:12:41.909Z,21.20
2022-09-04T21:15:16.675Z,21.30
2022-09-04T21:18:17.991Z,21.40
2022-09-04T21:21:17.344Z,21.30
2022-09-04T21:24:12.439Z,21.30
2022-09-04T21:26:53.423Z,21.20
2022-09-04T21:29:44.583Z,21.10
2022-09-04T21:32:31.937Z,21.10
2022-09-04T21:35:09.289Z,21.10
2022-09-04T21:37:47.603Z,21.20
2022-09-04T21:41:08.039Z,21.30
2022-09-04T21:47:08.861Z,21.60
2022-09-04T21:49:55.720Z,21.20
2022-09-04T21:52:47.684Z,21.00
2022-09-04T21:58:37.161Z,20.90
2022-09-04T22:02:36.514Z,20.90
2022-09-04T22:02:40.620Z,21.00
2022-09-04T22:03:57.401Z,21.00
2022-09-04T22:07:08.376Z,21.10
2022-09-04T22:13:30.138Z,21.10
2022-09-04T22:13:40.851Z,21.20
2022-09-04T22:14:30.941Z,21.10
2022-09-04T22:17:17.771Z,20.80
2022-09-04T22:20:13.932Z,20.90
2022-09-04T22:23:21.818Z,21.10
2022-09-04T22:26:22.997Z,21.00
2022-09-04T22:28:54.916Z,21.00
2022-09-04T22:32:24.225Z,21.00
2022-09-04T22:38:28.565Z,21.00
2022-09-04T22:41:06.460Z,21.00
2022-09-04T22:43:45.363Z,21.00
2022-09-04T22:46:29.828Z,21.00
2022-09-04T22:49:27.365Z,21.00
2022-09-04T22:52:23.798Z,21.00
2022-09-04T22:55:12.900Z,21.00
2022-09-04T22:57:44.873Z,21.00
2022-09-04T23:00:14.592Z,20.90
2022-09-04T23:03:21.573Z,20.80
2022-09-04T23:08:26.005Z,20.80
2022-09-04T23:13:43.768Z,20.70
2022-09-04T23:14:00.082Z,20.60
2022-09-04T23:15:07.992Z,20.60
2022-09-04T23:17:59.942Z,20.50
2022-09-04T23:26:31.287Z,20.50
2022-09-04T23:26:47.007Z,20.50
2022-09-04T23:26:48.845Z,20.50
2022-09-04T23:28:51.715Z,20.50
2022-09-04T23:31:33.616Z,20.50
2022-09-04T23:34:31.442Z,20.60
2022-09-04T23:37:34.904Z,20.50
2022-09-04T23:43:35.872Z,20.40
2022-09-04T23:46:35.357Z,20.50
2022-09-04T23:49:42.781Z,20.50
2022-09-04T23:52:18.636Z,20.50
2022-09-04T23:55:06.677Z,20.50
2022-09-04T23:57:43.388Z,20.50
